createdAt,value
2023-01-21T00:02:43.803Z,-2.64
2023-01-21T00:05:45.659Z,-2.68
2023-01-21T00:08:47.404Z,-2.62
2023-01-21T00:11:49.272Z,-2.62
2023-01-21T00:14:51.046Z,-2.60
2023-01-21T00:17:54.047Z,-2.71
2023-01-21T00:20:55.799Z,-2.67
2023-01-21T00:23:57.646Z,-2.68
2023-01-21T00:26:59.413Z,-2.70
2023-01-21T00:30:01.285Z,-2.76
2023-01-21T00:33:04.052Z,-2.72
2023-01-21T00:36:09.367Z,-2.76
2023-01-21T00:39:11.160Z,-2.84
2023-01-21T00:42:12.943Z,-2.87
2023-01-21T00:45:14.703Z,-2.90
2023-01-21T00:48:16.457Z,-3.01
2023-01-21T00:51:18.659Z,-2.93
2023-01-21T00:54:20.549Z,-2.96
2023-01-21T00:57:22.343Z,-3.01
2023-01-21T01:00:24.353Z,-3.08
2023-01-21T01:03:26.251Z,-3.08
2023-01-21T01:06:28.042Z,-3.26
2023-01-21T01:09:30.036Z,-3.16
2023-01-21T01:12:31.791Z,-3.28
2023-01-21T01:15:33.739Z,-3.21
2023-01-21T01:18:36.468Z,-3.22
2023-01-21T01:21:38.333Z,-3.36
2023-01-21T01:24:40.158Z,-3.26
2023-01-21T01:27:41.809Z,-3.33
2023-01-21T01:30:44.967Z,-3.35
2023-01-21T01:33:47.439Z,-3.31
2023-01-21T01:36:49.857Z,-3.34
2023-01-21T01:39:51.621Z,-3.40
2023-01-21T01:42:53.480Z,-3.43
2023-01-21T01:45:55.272Z,-3.28
2023-01-21T01:49:19.391Z,-3.31
2023-01-21T01:52:22.998Z,-3.34
2023-01-21T01:55:25.171Z,-3.29
2023-01-21T01:58:28.616Z,-3.40
2023-01-21T02:01:30.689Z,-3.22
2023-01-21T02:04:38.640Z,-3.19
2023-01-21T02:07:43.829Z,-3.29
2023-01-21T02:10:45.690Z,-3.22
2023-01-21T02:13:56.521Z,-3.16
2023-01-21T02:17:04.572Z,-3.14
2023-01-21T02:20:43.875Z,-3.08
2023-01-21T02:24:07.003Z,-3.08
2023-01-21T02:27:51.670Z,-3.10
2023-01-21T02:31:41.232Z,-3.10
2023-01-21T02:34:58.456Z,-3.18
2023-01-21T02:38:22.373Z,-3.10
2023-01-21T02:41:56.449Z,-3.15
2023-01-21T02:45:27.217Z,-3.18
2023-01-21T02:48:37.373Z,-3.16
2023-01-21T02:51:39.136Z,-3.12
2023-01-21T02:54:40.836Z,-3.09
2023-01-21T02:57:48.947Z,-3.19
2023-01-21T03:01:15.250Z,-3.16
2023-01-21T03:04:29.015Z,-3.16
2023-01-21T03:07:54.908Z,-3.27
2023-01-21T03:11:13.961Z,-3.23
2023-01-21T03:14:41.523Z,-3.23
2023-01-21T03:17:53.755Z,-3.13
2023-01-21T03:20:59.747Z,-3.24
2023-01-21T03:24:02.742Z,-3.26
2023-01-21T03:27:07.155Z,-3.25
2023-01-21T03:30:17.063Z,-3.35
2023-01-21T03:33:22.145Z,-3.38
2023-01-21T03:36:36.756Z,-3.32
2023-01-21T03:39:52.586Z,-3.35
2023-01-21T03:42:56.473Z,-3.45
2023-01-21T03:46:09.869Z,-3.34
2023-01-21T03:49:19.257Z,-3.38
2023-01-21T03:52:24.514Z,-3.49
2023-01-21T03:55:26.758Z,-3.48
2023-01-21T03:58:29.043Z,-3.59
2023-01-21T04:01:30.963Z,-3.57
2023-01-21T04:04:33.423Z,-3.59
2023-01-21T04:07:35.308Z,-3.57
2023-01-21T04:10:37.558Z,-3.68
2023-01-21T04:13:39.883Z,-3.71
2023-01-21T04:16:42.196Z,-3.63
2023-01-21T04:19:44.564Z,-3.59
2023-01-21T04:22:46.762Z,-3.66
2023-01-21T04:25:49.260Z,-3.60
2023-01-21T04:28:51.180Z,-3.63
2023-01-21T04:31:53.576Z,-3.64
2023-01-21T04:34:55.972Z,-3.62
2023-01-21T04:37:58.352Z,-3.69
2023-01-21T04:41:00.205Z,-3.66
2023-01-21T04:44:01.921Z,-3.74
2023-01-21T04:47:04.243Z,-3.76
2023-01-21T04:50:06.763Z,-3.72
2023-01-21T04:53:09.134Z,-3.72
2023-01-21T04:56:10.922Z,-3.76
2023-01-21T04:59:12.688Z,-3.78
2023-01-21T05:02:14.632Z,-3.76
2023-01-21T05:05:17.017Z,-3.67
2023-01-21T05:08:19.169Z,-3.68
2023-01-21T05:11:21.212Z,-3.58
2023-01-21T05:14:23.382Z,-3.68
2023-01-21T05:17:26.514Z,-3.61
2023-01-21T05:20:28.789Z,-3.57
2023-01-21T05:23:31.164Z,-3.49
2023-01-21T05:26:32.934Z,-3.40
2023-01-21T05:29:35.182Z,-3.48
2023-01-21T05:32:37.533Z,-3.34
2023-01-21T05:35:39.947Z,-3.33
2023-01-21T05:38:42.117Z,-3.33
2023-01-21T05:41:44.219Z,-3.31
2023-01-21T05:44:46.037Z,-3.26
2023-01-21T05:47:48.130Z,-3.24
2023-01-21T05:50:50.360Z,-3.27
2023-01-21T05:53:52.351Z,-3.22
2023-01-21T05:56:54.548Z,-3.14
2023-01-21T05:59:57.548Z,-3.13
2023-01-21T06:03:04.413Z,-3.09
2023-01-21T06:06:07.427Z,-3.09
2023-01-21T06:09:09.349Z,-3.12
2023-01-21T06:12:11.541Z,-3.13
2023-01-21T06:15:14.422Z,-3.09
2023-01-21T06:18:16.593Z,-3.13
2023-01-21T06:21:18.787Z,-3.12
2023-01-21T06:24:20.679Z,-3.05
2023-01-21T06:27:22.619Z,-3.09
2023-01-21T06:30:25.777Z,-3.15
2023-01-21T06:33:27.538Z,-3.05
2023-01-21T06:36:29.347Z,-3.09
2023-01-21T06:39:31.284Z,-3.01
2023-01-21T06:42:33.028Z,-3.14
2023-01-21T06:45:34.812Z,-3.05
2023-01-21T06:48:37.526Z,-3.04
2023-01-21T06:51:39.865Z,-3.13
2023-01-21T06:54:43.516Z,-3.04
2023-01-21T06:57:46.046Z,-3.07
2023-01-21T07:00:47.928Z,-3.08
2023-01-21T07:03:50.100Z,-3.05
2023-01-21T07:10:12.992Z,-3.08
2023-01-21T07:13:15.047Z,-3.04
2023-01-21T07:16:17.403Z,-3.09
2023-01-21T07:19:19.883Z,-2.99
2023-01-21T07:22:27.168Z,-3.11
2023-01-21T07:25:29.581Z,-3.13
2023-01-21T07:28:39.560Z,-3.11
2023-01-21T07:31:42.858Z,-2.92
2023-01-21T07:34:45.404Z,-2.92
2023-01-21T07:37:47.467Z,-2.91
2023-01-21T07:40:50.487Z,-3.00
2023-01-21T07:43:57.965Z,-2.97
2023-01-21T07:47:00.012Z,-2.84
2023-01-21T07:50:07.815Z,-2.96
2023-01-21T07:53:19.321Z,-2.85
2023-01-21T07:56:22.294Z,-2.80
2023-01-21T07:59:24.329Z,-2.68
2023-01-21T08:02:27.097Z,-2.74
2023-01-21T08:05:32.857Z,-2.70
2023-01-21T08:08:41.005Z,-2.62
2023-01-21T08:11:44.667Z,-2.72
2023-01-21T08:14:47.256Z,-2.52
2023-01-21T08:17:50.025Z,-2.64
2023-01-21T08:20:56.626Z,-2.50
2023-01-21T08:23:59.044Z,-2.56
2023-01-21T08:27:04.217Z,-2.45
2023-01-21T08:30:06.848Z,-2.44
2023-01-21T08:48:32.070Z,-2.84
2023-01-21T08:51:34.285Z,-2.81
2023-01-21T08:54:36.766Z,-2.66
2023-01-21T08:57:39.004Z,-2.63
2023-01-21T09:00:42.454Z,-2.64
2023-01-21T09:03:45.727Z,-2.45
2023-01-21T09:06:48.599Z,-2.41
2023-01-21T09:09:50.475Z,-2.41
2023-01-21T09:12:52.307Z,-2.34
2023-01-21T09:15:54.794Z,-2.40
2023-01-21T09:18:58.942Z,-2.22
2023-01-21T09:22:00.758Z,-2.28
2023-01-21T09:25:10.709Z,-2.18
2023-01-21T09:28:13.111Z,-2.25
2023-01-21T09:31:18.468Z,-2.22
2023-01-21T09:34:20.414Z,-2.12
2023-01-21T09:37:22.275Z,-2.15
2023-01-21T09:40:25.200Z,-2.02
2023-01-21T09:43:34.386Z,-2.14
2023-01-21T09:46:41.790Z,-1.96
2023-01-21T09:50:22.150Z,-1.90
2023-01-21T09:53:32.519Z,-1.93
2023-01-21T09:56:47.546Z,-1.89
2023-01-21T10:00:19.687Z,-1.81
2023-01-21T10:03:40.079Z,-1.79
2023-01-21T10:06:55.897Z,-1.72
2023-01-21T10:10:30.592Z,-1.78
2023-01-21T10:13:38.291Z,-1.61
2023-01-21T10:17:04.331Z,-1.67
2023-01-21T10:20:07.104Z,-1.52
2023-01-21T10:23:28.333Z,-1.59
2023-01-21T10:26:34.487Z,-1.56
2023-01-21T10:29:42.499Z,-1.57
2023-01-21T10:32:45.991Z,-1.46
2023-01-21T10:35:59.811Z,-1.55
2023-01-21T10:39:04.624Z,-1.41
2023-01-21T10:42:18.113Z,-1.48
2023-01-21T10:45:39.267Z,-1.40
2023-01-21T10:48:52.696Z,-1.49
2023-01-21T10:52:24.795Z,-1.43
2023-01-21T10:55:53.760Z,-1.32
2023-01-21T10:59:01.054Z,-1.33
2023-01-21T11:02:05.377Z,-1.32
2023-01-21T11:05:12.570Z,-1.38
2023-01-21T11:08:24.284Z,-1.34
2023-01-21T11:11:46.788Z,-1.35
2023-01-21T11:19:37.687Z,-1.27
2023-01-21T11:22:45.675Z,-1.23
2023-01-21T11:25:49.370Z,-1.32
2023-01-21T11:29:22.864Z,-1.27
2023-01-21T11:32:29.432Z,-1.24
2023-01-21T11:35:31.426Z,-1.32
2023-01-21T11:38:35.604Z,-1.27
2023-01-21T11:41:37.773Z,-1.33
2023-01-21T11:45:01.488Z,-1.37
2023-01-21T11:48:19.715Z,-1.29
2023-01-21T11:51:22.001Z,-1.30
2023-01-21T11:54:25.155Z,-1.27
2023-01-21T11:57:33.060Z,-1.33
2023-01-21T12:00:36.821Z,-1.39
2023-01-21T12:03:45.845Z,-1.38
2023-01-21T12:06:48.903Z,-1.26
2023-01-21T12:10:36.553Z,-1.42
2023-01-21T12:14:11.505Z,-1.31
2023-01-21T12:17:46.957Z,-1.23
2023-01-21T12:21:16.465Z,-1.19
2023-01-21T12:24:31.565Z,-1.17
2023-01-21T12:28:21.253Z,-1.14
2023-01-21T12:31:40.123Z,-1.29
2023-01-21T12:34:59.596Z,-1.07
2023-01-21T12:38:22.291Z,-1.02
2023-01-21T12:45:04.884Z,-1.14
2023-01-21T12:48:28.844Z,-1.14
2023-01-21T12:51:44.327Z,-1.23
2023-01-21T12:54:57.010Z,-1.19
2023-01-21T12:58:22.183Z,-1.23
2023-01-21T13:02:21.029Z,-1.24
2023-01-21T13:05:34.712Z,-1.16
2023-01-21T13:09:01.103Z,-1.21
2023-01-21T13:12:13.245Z,-1.17
2023-01-21T13:15:24.052Z,-1.26
2023-01-21T13:18:34.555Z,-1.23
2023-01-21T13:21:50.610Z,-1.33
2023-01-21T13:25:11.679Z,-1.23
2023-01-21T13:28:25.372Z,-1.22
2023-01-21T13:31:55.307Z,-1.20
2023-01-21T13:35:41.363Z,-1.17
2023-01-21T13:38:58.441Z,-1.19
2023-01-21T13:42:26.598Z,-1.20
2023-01-21T13:45:50.947Z,-1.32
2023-01-21T13:49:03.525Z,-1.39
2023-01-21T13:52:21.617Z,-1.21
2023-01-21T13:55:46.725Z,-1.32
2023-01-21T13:59:00.933Z,-1.20
2023-01-21T14:02:18.513Z,-1.31
2023-01-21T14:05:44.620Z,-1.32
2023-01-21T14:08:51.885Z,-1.42
2023-01-21T14:11:57.856Z,-1.31
2023-01-21T14:15:24.860Z,-1.29
2023-01-21T14:18:42.002Z,-1.39
2023-01-21T14:21:59.711Z,-1.30
2023-01-21T14:25:34.220Z,-1.39
2023-01-21T14:28:47.315Z,-1.44
2023-01-21T14:31:57.119Z,-1.48
2023-01-21T14:35:27.828Z,-1.33
2023-01-21T14:38:46.108Z,-1.30
2023-01-21T14:42:11.110Z,-1.32
2023-01-21T14:45:15.078Z,-1.43
2023-01-21T14:48:42.249Z,-1.47
2023-01-21T14:51:49.539Z,-1.51
2023-01-21T14:54:51.418Z,-1.46
2023-01-21T14:57:57.714Z,-1.43
2023-01-21T15:00:59.913Z,-1.47
2023-01-21T15:04:07.586Z,-1.52
2023-01-21T15:07:21.896Z,-1.46
2023-01-21T15:10:33.883Z,-1.62
2023-01-21T15:13:40.178Z,-1.72
2023-01-21T15:20:43.194Z,-1.61
2023-01-21T15:23:45.568Z,-1.75
2023-01-21T15:27:26.135Z,-1.64
2023-01-21T15:30:45.075Z,-1.73
2023-01-21T15:33:54.084Z,-1.67
2023-01-21T15:36:58.133Z,-1.80
2023-01-21T15:40:02.662Z,-1.67
2023-01-21T15:43:14.816Z,-1.81
2023-01-21T15:46:35.112Z,-1.70
2023-01-21T15:49:56.348Z,-1.85
2023-01-21T15:53:47.796Z,-1.82
2023-01-21T15:57:09.184Z,-1.74
2023-01-21T16:00:17.038Z,-1.76
2023-01-21T16:03:30.720Z,-1.86
2023-01-21T16:06:39.293Z,-1.74
2023-01-21T16:10:05.744Z,-1.75
2023-01-21T16:13:16.636Z,-1.86
2023-01-21T16:16:36.697Z,-1.78
2023-01-21T16:19:46.586Z,-1.88
2023-01-21T16:22:52.611Z,-1.89
2023-01-21T16:25:55.098Z,-1.85
2023-01-21T16:28:57.435Z,-1.88
2023-01-21T16:32:00.057Z,-1.91
2023-01-21T16:35:01.905Z,-1.89
2023-01-21T16:38:04.112Z,-1.85
2023-01-21T16:41:12.655Z,-1.85
2023-01-21T16:44:17.431Z,-1.98
2023-01-21T16:47:28.921Z,-1.91
2023-01-21T16:50:32.761Z,-1.99
2023-01-21T16:53:34.611Z,-2.10
2023-01-21T16:56:47.554Z,-1.99
2023-01-21T16:59:49.800Z,-1.94
2023-01-21T17:02:52.399Z,-2.01
2023-01-21T17:05:59.304Z,-2.09
2023-01-21T17:09:05.202Z,-2.01
2023-01-21T17:12:11.531Z,-2.06
2023-01-21T17:15:24.407Z,-1.99
2023-01-21T17:18:31.693Z,-2.12
2023-01-21T17:21:46.071Z,-2.04
2023-01-21T17:25:44.864Z,-2.05
2023-01-21T17:29:40.692Z,-2.06
2023-01-21T17:40:43.626Z,-2.09
2023-01-21T17:44:17.107Z,-2.23
2023-01-21T17:48:14.442Z,-2.23
2023-01-21T17:51:32.868Z,-2.17
2023-01-21T17:58:47.818Z,-2.17
2023-01-21T18:02:06.613Z,-2.21
2023-01-21T18:05:08.728Z,-2.31
2023-01-21T18:08:14.994Z,-2.19
2023-01-21T18:11:17.632Z,-2.18
2023-01-21T18:14:22.499Z,-2.24
2023-01-21T18:17:25.040Z,-2.14
2023-01-21T18:20:29.335Z,-2.23
2023-01-21T18:23:31.850Z,-2.19
2023-01-21T18:26:34.161Z,-2.25
2023-01-21T18:29:36.242Z,-2.18
2023-01-21T18:32:38.255Z,-2.22
2023-01-21T18:35:44.340Z,-2.08
2023-01-21T18:38:46.587Z,-2.21
2023-01-21T18:41:48.580Z,-2.16
2023-01-21T18:44:50.887Z,-2.19
2023-01-21T18:47:52.901Z,-2.07
2023-01-21T18:50:55.224Z,-2.08
2023-01-21T18:53:59.732Z,-2.24
2023-01-21T18:57:03.610Z,-2.10
2023-01-21T19:00:18.963Z,-2.20
2023-01-21T19:03:23.282Z,-2.16
2023-01-21T19:06:25.378Z,-2.10
2023-01-21T19:09:27.254Z,-2.09
2023-01-21T19:12:29.015Z,-2.16
2023-01-21T19:15:30.821Z,-2.12
2023-01-21T19:18:33.218Z,-2.08
2023-01-21T19:21:35.215Z,-2.10
2023-01-21T19:24:36.976Z,-2.11
2023-01-21T19:27:42.217Z,-2.10
2023-01-21T19:30:45.543Z,-2.06
2023-01-21T19:33:47.423Z,-2.19
2023-01-21T19:36:49.368Z,-2.16
2023-01-21T19:39:51.334Z,-2.09
2023-01-21T19:42:53.854Z,-2.20
2023-01-21T19:45:57.949Z,-2.08
2023-01-21T19:49:02.839Z,-2.05
2023-01-21T19:52:05.953Z,-2.08
2023-01-21T19:55:09.363Z,-2.04
2023-01-21T19:58:20.629Z,-2.09
2023-01-21T20:01:22.523Z,-2.11
2023-01-21T20:04:24.377Z,-2.09
2023-01-21T20:07:26.456Z,-2.05
2023-01-21T20:10:30.072Z,-2.02
2023-01-21T20:13:37.897Z,-2.08
2023-01-21T20:16:46.070Z,-2.02
2023-01-21T20:19:47.934Z,-2.10
2023-01-21T20:22:50.592Z,-2.00
2023-01-21T20:25:56.857Z,-2.01
2023-01-21T20:29:01.669Z,-2.05
2023-01-21T20:32:07.027Z,-1.98
2023-01-21T20:35:08.971Z,-2.07
2023-01-21T20:38:13.558Z,-2.13
2023-01-21T20:41:15.551Z,-1.98
2023-01-21T20:44:17.516Z,-2.09
2023-01-21T20:47:32.702Z,-1.97
2023-01-21T20:50:40.791Z,-2.05
2023-01-21T20:53:42.539Z,-1.99
2023-01-21T20:56:45.905Z,-2.10
2023-01-21T20:59:53.755Z,-2.09
2023-01-21T21:02:58.707Z,-1.97
2023-01-21T21:06:00.435Z,-1.95
2023-01-21T21:09:02.580Z,-2.10
2023-01-21T21:12:04.380Z,-2.05
2023-01-21T21:15:07.753Z,-1.98
2023-01-21T21:18:13.874Z,-1.93
2023-01-21T21:21:17.073Z,-1.92
2023-01-21T21:24:20.711Z,-1.97
2023-01-21T21:27:22.834Z,-2.05
2023-01-21T21:30:26.134Z,-1.92
2023-01-21T21:33:28.161Z,-1.95
2023-01-21T21:36:30.052Z,-1.89
2023-01-21T21:39:31.859Z,-2.02
2023-01-21T21:42:52.198Z,-1.94
2023-01-21T21:46:12.796Z,-1.91
2023-01-21T21:49:16.270Z,-1.94
2023-01-21T21:52:18.229Z,-1.97
2023-01-21T21:55:20.271Z,-1.90
2023-01-21T21:58:22.182Z,-1.93
2023-01-21T22:01:27.000Z,-2.03
2023-01-21T22:04:29.694Z,-2.01
2023-01-21T22:07:31.620Z,-1.94
2023-01-21T22:10:33.445Z,-1.98
2023-01-21T22:13:37.857Z,-1.92
2023-01-21T22:16:45.948Z,-2.00
2023-01-21T22:19:50.672Z,-1.92
2023-01-21T22:22:52.567Z,-2.05
2023-01-21T22:25:56.176Z,-2.04
2023-01-21T22:28:58.315Z,-1.92
2023-01-21T22:32:00.840Z,-1.95
2023-01-21T22:35:02.684Z,-1.97
2023-01-21T22:38:06.331Z,-1.91
2023-01-21T22:41:09.382Z,-1.91
2023-01-21T22:44:11.356Z,-1.91
2023-01-21T22:47:13.107Z,-1.93
2023-01-21T22:50:14.994Z,-1.94
2023-01-21T22:53:16.705Z,-2.00
2023-01-21T22:56:23.397Z,-1.99
2023-01-21T22:59:25.292Z,-1.95
2023-01-21T23:02:27.123Z,-1.90
2023-01-21T23:05:29.246Z,-1.99
2023-01-21T23:08:31.364Z,-1.91
2023-01-21T23:11:33.129Z,-1.82
2023-01-21T23:14:35.106Z,-1.83
2023-01-21T23:17:36.860Z,-1.77
2023-01-21T23:20:38.973Z,-1.83
2023-01-21T23:23:41.230Z,-1.85
2023-01-21T23:26:43.070Z,-1.84
2023-01-21T23:29:44.808Z,-1.86
2023-01-21T23:32:46.715Z,-1.82
2023-01-21T23:36:00.092Z,-1.98
2023-01-21T23:39:01.993Z,-1.82
2023-01-21T23:42:06.737Z,-1.89
2023-01-21T23:45:09.082Z,-1.85
2023-01-21T23:48:11.087Z,-1.80
2023-01-21T23:51:14.905Z,-1.78
2023-01-21T23:54:16.736Z,-1.86
2023-01-21T23:57:19.640Z,-1.88
